createdAt,value
2018-11-27T00:00:40.446Z,65.63
2018-11-27T00:03:09.502Z,65.17
2018-11-27T00:05:38.932Z,65.20
2018-11-27T00:08:13.748Z,60.17
2018-11-27T00:10:42.780Z,66.03
2018-11-27T00:13:11.780Z,59.57
2018-11-27T00:15:40.806Z,61.37
2018-11-27T00:18:09.822Z,64.20
2018-11-27T00:20:38.830Z,63.27
2018-11-27T00:23:07.827Z,62.27
2018-11-27T00:25:36.823Z,64.20
2018-11-27T00:28:05.881Z,59.30
2018-11-27T00:30:34.872Z,61.60
2018-11-27T00:33:03.888Z,69.73
2018-11-27T00:35:32.892Z,67.30
2018-11-27T00:38:01.895Z,63.97
2018-11-27T00:40:31.012Z,70.20
2018-11-27T00:43:00.013Z,65.10
2018-11-27T00:45:29.039Z,62.60
2018-11-27T00:47:58.039Z,68.03
2018-11-27T00:50:27.043Z,70.87
2018-11-27T00:52:56.076Z,61.83
2018-11-27T00:55:25.088Z,66.63
2018-11-27T00:57:54.089Z,69.50
2018-11-27T01:00:24.310Z,63.60
2018-11-27T01:02:53.376Z,67.23
2018-11-27T01:05:23.629Z,67.60
2018-11-27T01:07:52.694Z,70.93
2018-11-27T01:10:22.654Z,63.73
2018-11-27T01:12:51.704Z,67.93
2018-11-27T01:15:20.761Z,57.40
2018-11-27T01:17:58.963Z,67.83
2018-11-27T01:20:28.635Z,67.10
2018-11-27T01:22:57.639Z,67.73
2018-11-27T01:25:26.658Z,67.17
2018-11-27T01:27:55.717Z,67.23
2018-11-27T01:30:24.820Z,65.93
2018-11-27T01:32:53.822Z,64.70
2018-11-27T01:35:23.731Z,73.30
2018-11-27T01:37:53.755Z,78.00
2018-11-27T01:40:23.729Z,65.97
2018-11-27T01:42:53.748Z,68.23
2018-11-27T01:45:23.273Z,63.83
2018-11-27T01:47:52.346Z,62.60
2018-11-27T01:50:21.522Z,64.27
2018-11-27T01:52:50.600Z,74.03
2018-11-27T01:55:20.466Z,71.17
2018-11-27T01:57:49.495Z,66.37
2018-11-27T02:00:27.868Z,66.27
2018-11-27T02:02:57.908Z,63.37
2018-11-27T02:05:27.451Z,62.23
2018-11-27T02:07:56.527Z,68.00
2018-11-27T02:10:25.561Z,70.43
2018-11-27T02:13:00.968Z,74.13
2018-11-27T02:15:27.067Z,67.93
2018-11-27T02:17:56.158Z,63.23
2018-11-27T02:20:25.172Z,64.63
2018-11-27T02:22:54.222Z,68.20
2018-11-27T02:25:25.088Z,63.07
2018-11-27T02:27:54.099Z,69.73
2018-11-27T02:30:24.027Z,67.50
2018-11-27T02:32:53.066Z,71.00
2018-11-27T02:35:23.034Z,62.97
2018-11-27T02:37:54.827Z,72.50
2018-11-27T02:40:23.970Z,70.50
2018-11-27T02:42:53.046Z,71.27
2018-11-27T02:45:23.138Z,72.60
2018-11-27T02:47:52.751Z,76.03
2018-11-27T02:50:22.762Z,71.00
2018-11-27T02:52:51.804Z,67.17
2018-11-27T02:55:21.707Z,67.63
2018-11-27T02:57:50.746Z,74.27
2018-11-27T03:00:20.828Z,60.70
2018-11-27T03:02:49.917Z,75.57
2018-11-27T03:05:22.492Z,67.10
2018-11-27T03:07:51.520Z,67.00
2018-11-27T03:10:20.535Z,62.80
2018-11-27T03:12:49.522Z,64.80
2018-11-27T03:15:18.579Z,66.27
2018-11-27T03:17:47.644Z,70.70
2018-11-27T03:20:17.463Z,74.37
2018-11-27T03:22:46.456Z,69.50
2018-11-27T03:25:19.312Z,67.83
2018-11-27T03:27:51.118Z,64.27
2018-11-27T03:30:21.079Z,64.03
2018-11-27T03:32:50.130Z,70.20
2018-11-27T03:35:20.051Z,67.80
2018-11-27T03:37:49.393Z,64.83
2018-11-27T03:40:27.547Z,70.07
2018-11-27T03:42:56.598Z,70.00
2018-11-27T03:45:25.869Z,65.47
2018-11-27T03:47:54.902Z,71.67
2018-11-27T03:50:25.794Z,63.73
2018-11-27T03:52:54.808Z,59.27
2018-11-27T03:55:23.853Z,62.97
2018-11-27T03:57:53.038Z,72.60
2018-11-27T04:00:23.811Z,70.87
2018-11-27T04:03:00.956Z,64.83
2018-11-27T04:05:30.011Z,72.80
2018-11-27T04:07:59.027Z,71.50
2018-11-27T04:10:28.044Z,68.87
2018-11-27T04:12:57.046Z,74.00
2018-11-27T04:15:26.077Z,65.73
2018-11-27T04:17:55.069Z,71.57
2018-11-27T04:20:24.081Z,76.23
2018-11-27T04:22:53.076Z,77.17
2018-11-27T04:25:22.118Z,71.43
2018-11-27T04:27:51.494Z,72.73
2018-11-27T04:30:22.443Z,67.57
2018-11-27T04:32:54.114Z,72.47
2018-11-27T04:35:23.203Z,64.27
2018-11-27T04:37:52.210Z,66.30
2018-11-27T04:40:21.877Z,67.13
2018-11-27T04:42:51.048Z,69.93
2018-11-27T04:45:21.117Z,66.70
2018-11-27T04:47:50.174Z,71.17
2018-11-27T04:50:19.519Z,62.47
2018-11-27T04:52:48.643Z,68.53
2018-11-27T04:55:19.867Z,62.53
2018-11-27T04:57:48.986Z,59.43
2018-11-27T05:00:20.873Z,77.90
2018-11-27T05:02:49.969Z,61.03
2018-11-27T05:05:19.034Z,60.93
2018-11-27T05:07:48.918Z,64.87
2018-11-27T05:10:21.918Z,65.40
2018-11-27T05:12:51.127Z,60.60
2018-11-27T05:15:21.016Z,64.17
2018-11-27T05:17:51.230Z,68.33
2018-11-27T05:20:23.312Z,61.50
2018-11-27T05:22:52.418Z,57.63
2018-11-27T05:25:21.463Z,65.93
2018-11-27T05:27:52.707Z,65.97
2018-11-27T05:30:23.696Z,74.53
2018-11-27T05:32:53.767Z,67.37
2018-11-27T05:35:24.007Z,61.07
2018-11-27T05:37:53.079Z,65.37
2018-11-27T05:40:23.835Z,65.57
2018-11-27T05:42:57.019Z,63.97
2018-11-27T05:45:26.412Z,67.80
2018-11-27T05:47:55.414Z,65.47
2018-11-27T05:50:24.511Z,59.47
2018-11-27T05:52:53.550Z,59.87
2018-11-27T05:55:22.588Z,61.10
2018-11-27T05:57:53.505Z,67.20
2018-11-27T06:00:23.764Z,73.13
2018-11-27T06:02:54.886Z,74.63
2018-11-27T06:05:24.050Z,64.23
2018-11-27T06:07:53.084Z,73.67
2018-11-27T06:10:23.619Z,88.03
2018-11-27T06:12:52.686Z,75.40
2018-11-27T06:15:22.734Z,75.67
2018-11-27T06:17:52.747Z,75.87
2018-11-27T06:20:22.406Z,70.77
2018-11-27T06:22:53.393Z,80.77
2018-11-27T06:25:23.490Z,73.03
2018-11-27T06:27:56.477Z,76.30
2018-11-27T06:30:26.474Z,59.80
2018-11-27T06:32:55.498Z,65.43
2018-11-27T06:35:33.512Z,69.57
2018-11-27T06:38:02.827Z,62.77
2018-11-27T06:40:32.095Z,71.20
2018-11-27T06:43:01.128Z,71.50
2018-11-27T06:45:30.139Z,74.67
2018-11-27T06:47:59.203Z,66.40
2018-11-27T06:50:28.232Z,73.60
2018-11-27T06:52:57.235Z,66.10
2018-11-27T06:55:26.320Z,71.77
2018-11-27T06:57:55.375Z,68.37
2018-11-27T07:00:28.134Z,64.63
2018-11-27T07:02:57.915Z,81.27
2018-11-27T07:05:26.951Z,75.37
2018-11-27T07:07:56.076Z,80.50
2018-11-27T07:10:27.235Z,92.40
2018-11-27T07:13:03.235Z,89.60
2018-11-27T07:15:32.235Z,89.47
2018-11-27T07:18:01.277Z,85.50
2018-11-27T07:20:30.302Z,83.20
2018-11-27T07:22:59.339Z,74.97
2018-11-27T07:25:29.329Z,75.87
2018-11-27T07:27:58.344Z,77.00
2018-11-27T07:30:27.483Z,77.03
2018-11-27T07:32:56.519Z,85.90
2018-11-27T07:35:25.557Z,76.60
2018-11-27T07:37:54.579Z,70.43
2018-11-27T07:40:24.551Z,63.13
2018-11-27T07:42:54.894Z,70.63
2018-11-27T07:45:24.433Z,64.83
2018-11-27T07:47:53.503Z,71.40
2018-11-27T07:50:22.527Z,61.80
2018-11-27T07:52:51.612Z,63.23
2018-11-27T07:55:21.730Z,58.00
2018-11-27T07:57:51.639Z,59.77
2018-11-27T08:00:23.179Z,62.93
2018-11-27T08:02:57.124Z,68.00
2018-11-27T08:05:34.256Z,66.60
2018-11-27T08:08:03.283Z,67.90
2018-11-27T08:10:32.802Z,76.27
2018-11-27T08:13:01.794Z,65.80
2018-11-27T08:15:31.301Z,74.60
2018-11-27T08:18:00.350Z,67.33
2018-11-27T08:20:31.467Z,68.13
2018-11-27T08:23:00.539Z,74.73
2018-11-27T08:25:30.178Z,62.37
2018-11-27T08:27:59.198Z,69.80
2018-11-27T08:30:28.228Z,62.87
2018-11-27T08:32:57.575Z,63.80
2018-11-27T08:35:27.925Z,57.03
2018-11-27T08:37:59.882Z,52.27
2018-11-27T08:40:30.210Z,60.37
2018-11-27T08:42:59.215Z,62.83
2018-11-27T08:45:28.260Z,62.80
2018-11-27T08:47:57.239Z,53.50
2018-11-27T08:50:27.714Z,62.03
2018-11-27T08:53:02.012Z,51.47
2018-11-27T08:55:35.412Z,58.53
2018-11-27T08:58:06.709Z,47.30
2018-11-27T09:00:35.749Z,49.57
2018-11-27T09:03:05.280Z,47.30
2018-11-27T09:05:34.287Z,48.93
2018-11-27T09:08:03.314Z,53.80
2018-11-27T09:10:32.315Z,46.00
2018-11-27T09:13:01.565Z,54.87
2018-11-27T09:15:30.386Z,45.30
2018-11-27T09:18:11.339Z,46.50
2018-11-27T09:20:40.363Z,39.77
2018-11-27T09:23:09.403Z,42.53
2018-11-27T09:25:38.408Z,43.10
2018-11-27T09:28:07.458Z,42.90
2018-11-27T09:30:36.474Z,43.70
2018-11-27T09:33:05.979Z,38.90
2018-11-27T09:35:35.334Z,38.63
2018-11-27T09:38:04.687Z,37.13
2018-11-27T09:40:33.700Z,33.00
2018-11-27T09:43:02.710Z,33.50
2018-11-27T09:45:31.778Z,32.67
2018-11-27T09:48:00.871Z,32.70
2018-11-27T09:50:29.895Z,30.63
2018-11-27T09:52:58.958Z,34.20
2018-11-27T09:55:28.134Z,33.33
2018-11-27T09:57:59.338Z,34.07
2018-11-27T10:00:29.803Z,33.00
2018-11-27T10:03:01.794Z,31.97
2018-11-27T10:05:30.819Z,29.80
2018-11-27T10:07:59.856Z,27.60
2018-11-27T10:10:28.891Z,30.13
2018-11-27T10:12:57.914Z,27.97
2018-11-27T10:15:27.843Z,25.73
2018-11-27T10:18:00.799Z,32.20
2018-11-27T10:20:45.349Z,27.30
2018-11-27T10:23:14.911Z,24.07
2018-11-27T10:25:43.930Z,21.63
2018-11-27T10:28:12.944Z,28.80
2018-11-27T10:30:41.996Z,27.53
2018-11-27T10:33:12.411Z,23.60
2018-11-27T10:35:45.994Z,25.23
2018-11-27T10:38:15.026Z,22.50
2018-11-27T10:40:44.349Z,22.50
2018-11-27T10:43:13.402Z,24.47
2018-11-27T10:45:42.455Z,22.40
2018-11-27T10:48:11.447Z,20.37
2018-11-27T10:50:40.471Z,23.67
2018-11-27T10:53:10.786Z,23.20
2018-11-27T10:55:39.834Z,23.20
2018-11-27T10:58:08.938Z,24.17
2018-11-27T11:00:44.444Z,20.60
2018-11-27T11:03:43.495Z,20.50
2018-11-27T11:06:12.583Z,24.20
2018-11-27T11:08:41.623Z,20.57
2018-11-27T11:11:10.640Z,23.07
2018-11-27T11:13:39.694Z,25.07
2018-11-27T11:16:08.723Z,20.73
2018-11-27T11:18:37.755Z,24.20
2018-11-27T11:21:07.164Z,22.50
2018-11-27T11:23:36.257Z,26.60
2018-11-27T11:26:05.648Z,26.47
2018-11-27T11:28:34.649Z,22.37
2018-11-27T11:31:03.691Z,20.53
2018-11-27T11:33:32.735Z,28.40
2018-11-27T11:36:01.759Z,27.03
2018-11-27T11:38:30.783Z,26.20
2018-11-27T11:40:59.884Z,27.93
2018-11-27T11:43:28.885Z,25.03
2018-11-27T11:45:57.912Z,25.17
2018-11-27T11:48:26.951Z,25.10
2018-11-27T11:50:55.966Z,27.10
2018-11-27T11:53:24.987Z,27.30
2018-11-27T11:55:54.009Z,26.77
2018-11-27T11:58:23.053Z,24.97
2018-11-27T12:00:54.231Z,31.47
2018-11-27T12:03:23.279Z,23.23
2018-11-27T12:05:52.312Z,26.60
2018-11-27T12:08:21.346Z,32.30
2018-11-27T12:10:50.354Z,26.10
2018-11-27T12:13:19.358Z,28.70
2018-11-27T12:15:48.374Z,30.73
2018-11-27T12:18:17.402Z,26.80
2018-11-27T12:20:46.448Z,23.70
2018-11-27T12:23:15.458Z,26.03
2018-11-27T12:25:44.496Z,31.47
2018-11-27T12:28:14.920Z,29.50
2018-11-27T12:30:42.574Z,21.83
2018-11-27T12:33:11.602Z,24.80
2018-11-27T12:35:40.634Z,26.83
2018-11-27T12:38:09.646Z,23.77
2018-11-27T12:40:38.671Z,23.57
2018-11-27T12:43:07.776Z,23.80
2018-11-27T12:45:36.815Z,22.20
2018-11-27T12:48:05.950Z,26.63
2018-11-27T12:50:45.680Z,22.10
2018-11-27T12:53:17.064Z,23.03
2018-11-27T12:55:46.943Z,28.00
2018-11-27T12:58:15.990Z,24.23
2018-11-27T13:00:45.054Z,27.50
2018-11-27T13:03:14.081Z,27.27
2018-11-27T13:05:45.054Z,26.40
2018-11-27T13:08:17.570Z,29.03
2018-11-27T13:10:46.623Z,24.37
2018-11-27T13:13:15.715Z,29.50
2018-11-27T13:15:45.263Z,25.43
2018-11-27T13:18:15.639Z,25.63
2018-11-27T13:20:44.662Z,27.20
2018-11-27T13:23:13.691Z,31.93
2018-11-27T13:25:43.127Z,31.17
2018-11-27T13:28:13.147Z,27.10
2018-11-27T13:30:49.548Z,28.63
2018-11-27T13:33:27.846Z,29.23
2018-11-27T13:35:56.931Z,26.90
2018-11-27T13:38:26.248Z,24.20
2018-11-27T13:40:55.102Z,26.47
2018-11-27T13:43:26.239Z,29.50
2018-11-27T13:45:56.222Z,27.67
2018-11-27T13:48:25.231Z,28.33
2018-11-27T13:50:54.279Z,27.23
2018-11-27T13:53:24.005Z,28.40
2018-11-27T13:55:53.091Z,27.13
2018-11-27T13:58:22.153Z,28.50
2018-11-27T14:00:51.175Z,25.63
2018-11-27T14:03:20.199Z,27.77
2018-11-27T14:05:49.260Z,28.10
2018-11-27T14:08:18.338Z,24.93
2018-11-27T14:10:47.437Z,27.93
2018-11-27T14:13:16.454Z,27.30
2018-11-27T14:15:45.538Z,27.40
2018-11-27T14:18:14.598Z,27.73
2018-11-27T14:20:43.654Z,28.10
2018-11-27T14:23:12.712Z,27.43
2018-11-27T14:25:41.716Z,28.40
2018-11-27T14:28:10.754Z,27.10
2018-11-27T14:30:39.831Z,29.40
2018-11-27T14:33:08.868Z,24.87
2018-11-27T14:35:37.906Z,30.20
2018-11-27T14:38:07.255Z,21.70
2018-11-27T14:40:36.289Z,25.63
2018-11-27T14:43:05.328Z,27.83
2018-11-27T14:45:34.338Z,27.90
2018-11-27T14:48:03.363Z,27.43
2018-11-27T14:50:32.417Z,26.70
2018-11-27T14:53:01.453Z,22.20
2018-11-27T14:55:31.571Z,29.33
2018-11-27T14:58:00.627Z,29.17
2018-11-27T15:00:29.719Z,26.50
2018-11-27T15:02:58.785Z,29.37
2018-11-27T15:05:37.746Z,25.53
2018-11-27T15:08:10.676Z,26.07
2018-11-27T15:10:39.771Z,27.57
2018-11-27T15:13:09.770Z,21.40
2018-11-27T15:15:38.810Z,27.77
2018-11-27T15:18:08.189Z,22.93
2018-11-27T15:20:37.304Z,27.43
2018-11-27T15:23:06.522Z,27.10
2018-11-27T15:25:35.546Z,27.50
2018-11-27T15:28:04.787Z,25.23
2018-11-27T15:30:35.494Z,25.83
2018-11-27T15:33:04.692Z,25.70
2018-11-27T15:35:33.731Z,24.00
2018-11-27T15:38:02.782Z,27.43
2018-11-27T15:40:31.858Z,27.60
2018-11-27T15:43:00.851Z,28.90
2018-11-27T15:45:31.155Z,25.27
2018-11-27T15:48:00.270Z,25.03
2018-11-27T15:50:29.359Z,30.63
2018-11-27T15:52:58.507Z,23.00
2018-11-27T15:55:30.842Z,23.70
2018-11-27T15:58:02.364Z,23.93
2018-11-27T16:00:31.418Z,25.60
2018-11-27T16:03:01.015Z,23.93
2018-11-27T16:05:29.559Z,28.33
2018-11-27T16:07:58.592Z,24.17
2018-11-27T16:10:27.690Z,26.60
2018-11-27T16:12:56.813Z,24.63
2018-11-27T16:15:25.874Z,27.97
2018-11-27T16:17:54.919Z,23.60
2018-11-27T16:20:24.014Z,32.73
2018-11-27T16:22:53.507Z,27.73
2018-11-27T16:25:23.555Z,28.70
2018-11-27T16:27:52.781Z,26.10
2018-11-27T16:30:22.953Z,25.23
2018-11-27T16:32:52.082Z,24.87
2018-11-27T16:35:21.134Z,30.87
2018-11-27T16:37:52.529Z,27.33
2018-11-27T16:40:22.888Z,28.20
2018-11-27T16:42:51.934Z,29.83
2018-11-27T16:45:22.157Z,29.33
2018-11-27T16:47:51.516Z,26.47
2018-11-27T16:50:20.729Z,27.80
2018-11-27T16:52:50.118Z,32.80
2018-11-27T16:55:20.219Z,31.97
2018-11-27T16:57:49.334Z,30.33
2018-11-27T17:00:28.405Z,28.33
2018-11-27T17:02:59.417Z,25.50
2018-11-27T17:05:29.743Z,33.33
2018-11-27T17:07:58.869Z,28.23
2018-11-27T17:10:27.926Z,28.53
2018-11-27T17:12:57.773Z,29.77
2018-11-27T17:15:27.640Z,30.53
2018-11-27T17:17:56.743Z,27.10
2018-11-27T17:20:27.896Z,30.10
2018-11-27T17:22:58.213Z,25.63
2018-11-27T17:25:27.266Z,30.33
2018-11-27T17:27:57.876Z,27.40
2018-11-27T17:30:48.206Z,33.30
2018-11-27T17:33:23.513Z,29.67
2018-11-27T17:35:52.547Z,27.40
2018-11-27T17:38:21.569Z,29.07
2018-11-27T17:40:50.692Z,28.73
2018-11-27T17:43:19.721Z,26.43
2018-11-27T17:45:48.787Z,27.53
2018-11-27T17:48:17.832Z,29.10
2018-11-27T17:50:46.904Z,29.47
2018-11-27T17:53:15.914Z,32.43
2018-11-27T17:55:44.992Z,28.80
2018-11-27T17:58:14.088Z,28.63
2018-11-27T18:00:43.146Z,26.93
2018-11-27T18:03:12.215Z,32.97
2018-11-27T18:05:41.319Z,24.97
2018-11-27T18:08:10.392Z,28.17
2018-11-27T18:10:39.475Z,30.50
2018-11-27T18:13:08.510Z,29.57
2018-11-27T18:15:44.347Z,27.70
2018-11-27T18:18:13.388Z,33.33
2018-11-27T18:20:42.443Z,29.40
2018-11-27T18:23:11.499Z,29.33
2018-11-27T18:25:40.518Z,26.47
2018-11-27T18:28:09.606Z,27.53
2018-11-27T18:30:38.703Z,23.83
2018-11-27T18:33:07.885Z,28.40
2018-11-27T18:35:36.890Z,29.03
2018-11-27T18:38:06.467Z,24.40
2018-11-27T18:40:35.554Z,29.20
2018-11-27T18:43:04.590Z,20.80
2018-11-27T18:45:33.633Z,26.80
2018-11-27T18:48:02.675Z,30.20
2018-11-27T18:50:33.274Z,26.50
2018-11-27T18:53:02.314Z,24.00
2018-11-27T18:55:31.368Z,25.60
2018-11-27T18:58:00.390Z,27.77
2018-11-27T19:00:30.434Z,26.50
2018-11-27T19:02:59.535Z,25.77
2018-11-27T19:05:28.585Z,23.80
2018-11-27T19:07:57.694Z,26.67
2018-11-27T19:10:27.936Z,27.73
2018-11-27T19:12:56.992Z,23.53
2018-11-27T19:15:34.932Z,26.37
2018-11-27T19:18:09.541Z,24.33
2018-11-27T19:20:38.598Z,25.30
2018-11-27T19:23:07.652Z,27.70
2018-11-27T19:25:36.694Z,27.43
2018-11-27T19:28:06.177Z,26.47
2018-11-27T19:30:35.447Z,25.10
2018-11-27T19:33:04.963Z,29.50
2018-11-27T19:35:34.123Z,25.27
2018-11-27T19:38:03.247Z,30.83
2018-11-27T19:40:32.363Z,28.50
2018-11-27T19:43:01.415Z,27.60
2018-11-27T19:45:30.467Z,32.53
2018-11-27T19:47:59.563Z,27.67
2018-11-27T19:50:28.608Z,25.60
2018-11-27T19:52:57.763Z,29.07
2018-11-27T19:55:26.815Z,27.47
2018-11-27T19:57:55.851Z,22.87
2018-11-27T20:00:26.087Z,29.07
2018-11-27T20:02:55.431Z,33.83
2018-11-27T20:05:28.951Z,29.03
2018-11-27T20:07:58.148Z,31.60
2018-11-27T20:10:27.383Z,31.43
2018-11-27T20:12:56.443Z,30.27
2018-11-27T20:15:27.419Z,28.20
2018-11-27T20:17:56.963Z,30.93
2018-11-27T20:20:27.123Z,35.83
2018-11-27T20:22:57.118Z,35.90
2018-11-27T20:25:26.287Z,34.60
2018-11-27T20:27:55.357Z,25.33
2018-11-27T20:30:26.182Z,28.90
2018-11-27T20:32:57.236Z,35.63
2018-11-27T20:35:26.695Z,35.27
2018-11-27T20:37:56.173Z,34.03
2018-11-27T20:40:25.411Z,38.07
2018-11-27T20:42:54.529Z,35.60
2018-11-27T20:45:24.713Z,28.30
2018-11-27T20:48:02.850Z,32.03
2018-11-27T20:50:31.876Z,32.07
2018-11-27T20:53:00.920Z,32.60
2018-11-27T20:55:29.944Z,36.37
2018-11-27T20:57:59.489Z,33.50
2018-11-27T21:00:37.276Z,34.13
2018-11-27T21:03:07.456Z,36.40
2018-11-27T21:05:36.704Z,35.13
2018-11-27T21:08:06.370Z,32.70
2018-11-27T21:10:35.603Z,32.27
2018-11-27T21:13:04.725Z,42.93
2018-11-27T21:15:33.758Z,28.03
2018-11-27T21:18:02.887Z,29.77
2018-11-27T21:20:31.931Z,29.50
2018-11-27T21:23:00.998Z,34.80
2018-11-27T21:25:30.038Z,31.63
2018-11-27T21:28:11.287Z,31.13
2018-11-27T21:30:40.350Z,32.97
2018-11-27T21:33:09.411Z,32.20
2018-11-27T21:35:38.471Z,46.37
2018-11-27T21:38:07.729Z,31.50
2018-11-27T21:40:36.835Z,31.07
2018-11-27T21:43:07.207Z,35.13
2018-11-27T21:45:36.438Z,38.40
2018-11-27T21:48:05.952Z,37.40
2018-11-27T21:50:42.719Z,32.77
2018-11-27T21:53:11.943Z,34.57
2018-11-27T21:55:41.771Z,39.27
2018-11-27T21:58:10.956Z,42.17
2018-11-27T22:00:41.162Z,29.87
2018-11-27T22:03:11.022Z,35.37
2018-11-27T22:05:40.039Z,41.80
2018-11-27T22:08:09.302Z,36.53
2018-11-27T22:10:38.552Z,34.60
2018-11-27T22:13:09.325Z,35.73
2018-11-27T22:15:39.590Z,35.60
2018-11-27T22:18:09.545Z,31.60
2018-11-27T22:20:38.624Z,30.67
2018-11-27T22:23:08.358Z,36.97
2018-11-27T22:25:37.458Z,32.03
2018-11-27T22:28:07.594Z,33.37
2018-11-27T22:30:36.653Z,36.03
2018-11-27T22:33:07.050Z,39.03
2018-11-27T22:35:36.099Z,37.60
2018-11-27T22:38:05.740Z,39.53
2018-11-27T22:40:34.779Z,40.20
2018-11-27T22:43:03.846Z,44.97
2018-11-27T22:45:37.408Z,37.93
2018-11-27T22:48:07.711Z,43.60
2018-11-27T22:50:36.772Z,38.63
2018-11-27T22:53:06.592Z,35.70
2018-11-27T22:55:35.730Z,45.40
2018-11-27T22:58:05.715Z,40.00
2018-11-27T23:00:40.199Z,34.53
2018-11-27T23:03:09.290Z,38.57
2018-11-27T23:05:38.251Z,36.10
2018-11-27T23:08:07.362Z,32.90
2018-11-27T23:10:37.600Z,33.20
2018-11-27T23:13:06.899Z,32.80
2018-11-27T23:15:35.935Z,38.53
2018-11-27T23:18:05.120Z,33.10
2018-11-27T23:20:34.195Z,44.77
2018-11-27T23:23:03.315Z,36.10
2018-11-27T23:25:32.360Z,34.30
2018-11-27T23:28:01.343Z,28.60
2018-11-27T23:30:30.402Z,36.00
2018-11-27T23:32:59.495Z,34.97
2018-11-27T23:35:28.506Z,31.57
2018-11-27T23:37:57.543Z,29.33
2018-11-27T23:40:26.603Z,39.20
2018-11-27T23:42:55.631Z,34.27
2018-11-27T23:45:24.686Z,36.77
2018-11-27T23:47:53.711Z,41.63
2018-11-27T23:50:23.042Z,40.90
2018-11-27T23:52:52.058Z,27.83
2018-11-27T23:55:21.162Z,32.93
2018-11-27T23:57:50.163Z,35.63
